Scroll down
FLIGHT INFORMATION
PMDG Flight Operations

PFO139

At Arrival Gate

VHHX
 YSSY
DATE: 2018-08-18
GATE:  -
GATE DEPARTURE: 19:19
TAKEOFF: 19:30
DATE: 2018-08-19
GATE: CARGO 3
LANDING: 03:43
GATE ARRIVAL: 03:52
FLIGHT DATA
Crew: MARK ADEANE
Speed: 531 kts Altitude: 37000 ft
Stage Length: 3985 nm
Route: 
Block Time: 8.6 Flight Time: 8.2
Fuel Used: 181256 LB
TRACK DATA
50000 FT1000 KT
AIRCRAFT INFORMATION
Aircraft Type: B744F
Registration: N744PF
SELCAL:  MSN/LN: 0 / 3
Operator: PMDG FLIGHT OPERATIONS
Flights: 7 Block Time: 36.2 Flight Time: 34.5
Fuel Used: 735663 LB
  • DEPARTURE INFORMATION
    Date: 2018-08-18
    Airport: VHHX
    Gate:  -
    Gate Departure: 19:19
    Takeoff: 19:30
    ARRIVAL INFORMATION
    Date: 2018-08-19
    Airport: YSSY
    Gate: CARGO 3
    Landing: 03:43
    Gate Arrival: 03:52
  • FLIGHT DATA
    Crew: MARK ADEANE
    Speed: 531 kts Altitude: 37000 ft
    Stage Length: 2152 nm
    Route: 
    Block Time: 8.6 Flight Time: 8.2
    Fuel Used: 181256 LB
  • AIRCRAFT INFORMATION
    Aircraft Type: B744F
    Registration: N744PF
    SELCAL:  MSN/LN: 0 / 3
    Operator: PMDG Flight Operations
    Flights: 7 Block Time: 36.2 Flight Time: 34.5
    Fuel Used: 735663 LB

DATALINK LOG | Newest first | Current as of: 2020-09-28 18:13:32
LABEL SEQUENCE CONTENT Dn/Up
QD052703:52 34.5▼ Dn
QC435403:43▼ Dn
2U2437YSSY 190500Z 25024G34KT CAVOK 15/M04 Q1011 FM0500 MOD/SEV TURB BLW 5000FT▲ Up
2S0134YSSY▼ Dn
GA0316CARGO STAND CARGO 3▲ Up
GR5053YSSY▼ Dn
5U5307TAF YSSY 182319Z 1900/2006 25025G40KT CAVOK FM191000 23018G28KT 9999 SCT045 BKN080 FM200000 20020G30KT CAVOK FM200400 17015KT CAVOK▲ Up
5S4044YSSY▼ Dn
2U5207YSSY 190430Z 26026G36KT CAVOK 15/M04 Q1011 FM0430 MOD/SEV TURB BLW 5000FT▲ Up
2S4038YSSY▼ Dn
463822/OV XXX /TM 1938 /FL100 /TP B744 /SK BKN /TA 30 /WV 000/00 /TB SVR /RM TSRA VCY VHHX▼ Dn
QB305619:30▼ Dn
QA192019:19 216▼ Dn


AIRCRAFT HISTORY
FLIGHT DATE FLIGHT NO. ORIGIN DESTINATION ROUTE BLOCK TIME FLIGHT TIME FUEL USED (LB) PILOT
2019-03-09PFO309KLAX EDDF KLAX DOCKR WEILR SHAEF PEVEE HOLTZ DOTSS EYEDL HOMER CLEEE PKE LANCY DRK PUB OBH FOD DLL MTW TVC SILVU YYB YQB MIILS IBERG 4950N 5040N 5130N 5220N TOBOR RILED SLANY STU DIKAS GAVGO KENET CPT NORRY LINDY GOXUL BIG DIKVU LAVRI EMKAD UMTUM DVR KONAN KOK FERDI BUPAL REMBA SPI PESOV TOBOP NIVNU RASVO PIPEP UNOKO IBVIL MANUV RAMOB ROKIM MTR EDDF10.410216595Kyle Rodgers
2019-03-06PFO305PHTO KLAX PHTO EBBER ELOYI ERROT ETNIC ETECO EDSEL EDTOO ELKEY VTU SADDE BAYST SMO HUNDA RW25L4.2482790Kyle Weber
2019-02-16PFO216PHKO PHTO PHKO MYNAH JASON MUE TIGAH VELLA PARIS ARBOR ITO RX26 RW260.60.410854Kyle Weber
2019-01-09PFO118PHOG PHKO ONOHI WANSI TAMMI VECKI0.60.411122Kyle Weber
2019-01-03PFO12PHNL PHOG PALAY ROSHE LNY KEIKI CAMPS0.80.414539Kyle Weber
2018-09-01PFO3265YSSY PHNL 8.98.5218508Mark Adeane
2018-08-18PFO139VHHX YSSY 8.68.2181256Mark Adeane